Time,TemperatureF,DewpointF,PressureIn,WindDirection,WindDirectionDegrees,WindSpeedMPH,WindSpeedGustMPH,Humidity,HourlyPrecipIn,Conditions,Clouds,dailyrainin,SoftwareType,DateUTC
2013-08-02 00:01:00,66.5,52.0,29.77,East,97,3.0,6.0,60,0.00,,,0.00,Weather View 32 v70,2013-08-02 04:01:00,
2013-08-02 00:05:00,66.0,51.6,29.74,ESE,118,4.0,6.0,60,0.00,,,0.00,Weather View 32 v70,2013-08-02 04:05:00,
2013-08-02 00:10:00,66.7,52.3,29.77,ENE,62,2.0,6.0,60,0.00,,,0.00,Weather View 32 v70,2013-08-02 04:10:00,
2013-08-02 00:15:00,67.1,51.9,29.77,East,84,2.0,6.0,58,0.00,,,0.00,Weather View 32 v70,2013-08-02 04:15:00,
2013-08-02 00:17:00,66.9,51.7,29.74,ESE,105,3.0,6.0,58,0.00,,,0.00,Weather View 32 v70,2013-08-02 04:17:00,
2013-08-02 00:22:00,66.5,51.9,29.74,East,96,4.0,6.0,59,0.00,,,0.00,Weather View 32 v70,2013-08-02 04:22:00,
2013-08-02 00:27:00,66.9,52.2,29.74,ESE,110,2.0,6.0,59,0.00,,,0.00,Weather View 32 v70,2013-08-02 04:27:00,
2013-08-02 00:32:00,66.9,51.3,29.74,North,0,0.0,6.0,57,0.00,,,0.00,Weather View 32 v70,2013-08-02 04:32:00,
2013-08-02 00:37:00,67.4,51.3,29.77,ENE,72,1.0,6.0,56,0.00,,,0.00,Weather View 32 v70,2013-08-02 04:37:00,
2013-08-02 00:42:00,68.0,51.3,29.74,East,90,2.0,6.0,55,0.00,,,0.00,Weather View 32 v70,2013-08-02 04:42:00,
2013-08-02 00:47:00,67.1,51.4,29.74,SE,132,4.0,6.0,57,0.00,,,0.00,Weather View 32 v70,2013-08-02 04:47:00,
2013-08-02 00:52:00,67.1,51.9,29.74,SE,126,2.0,6.0,58,0.00,,,0.00,Weather View 32 v70,2013-08-02 04:52:00,
2013-08-02 00:57:00,67.3,51.6,29.77,East,91,2.0,6.0,57,0.00,,,0.00,Weather View 32 v70,2013-08-02 04:57:00,
2013-08-02 01:02:00,67.8,51.8,29.74,ESE,116,2.0,5.0,57,0.00,,,0.00,Weather View 32 v70,2013-08-02 05:02:00,
2013-08-02 01:07:00,67.8,52.1,29.77,East,89,1.0,5.0,57,0.00,,,0.00,Weather View 32 v70,2013-08-02 05:07:00,
2013-08-02 01:12:00,68.3,51.9,29.74,East,91,2.0,5.0,56,0.00,,,0.00,Weather View 32 v70,2013-08-02 05:12:00,
2013-08-02 01:17:00,68.0,51.9,29.74,SE,133,2.0,5.0,57,0.00,,,0.00,Weather View 32 v70,2013-08-02 05:17:00,
2013-08-02 01:22:00,67.8,52.0,29.74,East,97,3.0,5.0,57,0.00,,,0.00,Weather View 32 v70,2013-08-02 05:22:00,
2013-08-02 01:27:00,68.0,52.5,29.74,East,91,2.0,5.0,58,0.00,,,0.00,Weather View 32 v70,2013-08-02 05:27:00,
2013-08-02 01:32:00,67.3,52.3,29.74,East,100,3.0,5.0,59,0.00,,,0.00,Weather View 32 v70,2013-08-02 05:32:00,
2013-08-02 01:37:00,66.5,51.3,29.71,South,171,3.0,5.0,58,0.00,,,0.00,Weather View 32 v70,2013-08-02 05:37:00,
2013-08-02 01:42:00,66.9,52.7,29.71,ESE,105,4.0,6.0,60,0.00,,,0.00,Weather View 32 v70,2013-08-02 05:42:00,
2013-08-02 01:48:00,67.1,52.6,29.74,ESE,106,2.0,6.0,60,0.00,,,0.00,Weather View 32 v70,2013-08-02 05:48:00,
2013-08-02 01:53:00,66.9,53.1,29.71,ESE,120,2.0,6.0,61,0.00,,,0.00,Weather View 32 v70,2013-08-02 05:53:00,
2013-08-02 01:58:00,66.4,52.6,29.71,SE,144,4.0,6.0,61,0.00,,,0.00,Weather View 32 v70,2013-08-02 05:58:00,
2013-08-02 02:03:00,66.9,53.5,29.71,East,94,3.0,6.0,62,0.00,,,0.00,Weather View 32 v70,2013-08-02 06:03:00,
2013-08-02 02:57:00,66.4,51.7,29.74,South,170,2.0,6.0,59,0.00,,,0.00,Weather View 32 v70,2013-08-02 06:57:00,
2013-08-02 03:02:00,67.8,53.2,29.71,East,99,2.0,6.0,60,0.00,,,0.00,Weather View 32 v70,2013-08-02 07:02:00,
2013-08-02 03:07:00,68.3,52.9,29.68,ESE,116,1.0,6.0,58,0.00,,,0.00,Weather View 32 v70,2013-08-02 07:07:00,
2013-08-02 03:12:00,68.7,52.7,29.68,East,87,2.0,6.0,57,0.00,,,0.00,Weather View 32 v70,2013-08-02 07:12:00,
2013-08-02 03:17:00,68.2,52.1,29.68,SE,132,3.0,5.0,57,0.00,,,0.00,Weather View 32 v70,2013-08-02 07:17:00,
2013-08-02 03:22:00,67.6,51.9,29.68,SE,137,1.0,5.0,57,0.00,,,0.00,Weather View 32 v70,2013-08-02 07:22:00,
2013-08-02 03:27:00,67.4,51.5,29.68,SE,145,1.0,4.0,57,0.00,,,0.00,Weather View 32 v70,2013-08-02 07:27:00,
2013-08-02 03:32:00,66.7,52.8,29.68,ESE,111,5.0,8.0,61,0.00,,,0.00,Weather View 32 v70,2013-08-02 07:32:00,
2013-08-02 03:37:00,66.2,53.3,29.68,East,100,2.0,8.0,63,0.00,,,0.00,Weather View 32 v70,2013-08-02 07:37:00,
2013-08-02 03:42:00,66.4,53.5,29.68,ESE,121,2.0,8.0,63,0.00,,,0.00,Weather View 32 v70,2013-08-02 07:42:00,
2013-08-02 03:47:00,66.4,53.6,29.65,ESE,122,3.0,8.0,64,0.00,,,0.00,Weather View 32 v70,2013-08-02 07:47:00,
2013-08-02 03:52:00,66.4,53.6,29.68,ESE,113,3.0,8.0,64,0.00,,,0.00,Weather View 32 v70,2013-08-02 07:52:00,
2013-08-02 03:57:00,66.7,54.1,29.71,East,86,1.0,8.0,64,0.00,,,0.00,Weather View 32 v70,2013-08-02 07:57:00,
2013-08-02 04:02:00,66.7,53.9,29.71,East,100,3.0,8.0,64,0.00,,,0.00,Weather View 32 v70,2013-08-02 08:02:00,
2013-08-02 04:07:00,66.9,54.3,29.68,East,85,2.0,8.0,64,0.00,,,0.00,Weather View 32 v70,2013-08-02 08:07:00,
2013-08-02 04:12:00,66.9,54.1,29.68,ESE,114,2.0,8.0,64,0.00,,,0.00,Weather View 32 v70,2013-08-02 08:12:00,
2013-08-02 04:17:00,66.9,54.3,29.71,East,85,1.0,8.0,64,0.00,,,0.00,Weather View 32 v70,2013-08-02 08:17:00,
2013-08-02 04:22:00,66.9,53.8,29.68,ENE,59,2.0,8.0,63,0.00,,,0.00,Weather View 32 v70,2013-08-02 08:22:00,
2013-08-02 04:27:00,67.1,53.6,29.68,East,85,1.0,8.0,62,0.00,,,0.00,Weather View 32 v70,2013-08-02 08:27:00,
2013-08-02 04:32:00,67.1,53.4,29.68,ESE,116,3.0,8.0,62,0.00,,,0.00,Weather View 32 v70,2013-08-02 08:32:00,
2013-08-02 04:37:00,66.9,54.0,29.71,ENE,67,1.0,5.0,63,0.00,,,0.00,Weather View 32 v70,2013-08-02 08:37:00,
2013-08-02 04:42:00,67.1,53.7,29.71,East,87,2.0,5.0,62,0.00,,,0.00,Weather View 32 v70,2013-08-02 08:42:00,
2013-08-02 04:47:00,67.4,53.8,29.68,ENE,77,2.0,5.0,62,0.00,,,0.00,Weather View 32 v70,2013-08-02 08:47:00,
2013-08-02 04:52:00,66.9,53.6,29.68,East,95,2.0,5.0,63,0.00,,,0.00,Weather View 32 v70,2013-08-02 08:52:00,
2013-08-02 04:57:00,67.3,54.0,29.71,NNE,29,2.0,5.0,63,0.00,,,0.00,Weather View 32 v70,2013-08-02 08:57:00,
2013-08-02 05:02:00,67.3,53.8,29.71,NE,47,1.0,5.0,62,0.00,,,0.00,Weather View 32 v70,2013-08-02 09:02:00,
2013-08-02 05:07:00,67.3,53.7,29.68,ESE,106,2.0,5.0,62,0.00,,,0.00,Weather View 32 v70,2013-08-02 09:07:00,
2013-08-02 05:12:00,67.4,53.7,29.68,NNE,26,1.0,5.0,62,0.00,,,0.00,Weather View 32 v70,2013-08-02 09:12:00,
2013-08-02 05:17:00,67.4,53.7,29.68,ESE,102,1.0,5.0,62,0.00,,,0.00,Weather View 32 v70,2013-08-02 09:17:00,
2013-08-02 05:22:00,67.4,53.2,29.68,ENE,57,1.0,5.0,60,0.00,,,0.00,Weather View 32 v70,2013-08-02 09:22:00,
2013-08-02 05:27:00,67.6,53.4,29.68,East,95,1.0,5.0,61,0.00,,,0.00,Weather View 32 v70,2013-08-02 09:27:00,
2013-08-02 05:32:00,67.8,53.5,29.68,East,84,1.0,5.0,60,0.00,,,0.00,Weather View 32 v70,2013-08-02 09:32:00,
2013-08-02 05:37:00,68.0,53.7,29.71,NE,48,1.0,4.0,60,0.00,,,0.00,Weather View 32 v70,2013-08-02 09:37:00,
2013-08-02 05:42:00,68.2,53.7,29.68,East,79,1.0,4.0,60,0.00,,,0.00,Weather View 32 v70,2013-08-02 09:42:00,
2013-08-02 05:47:00,68.0,53.3,29.68,NE,34,1.0,4.0,59,0.00,,,0.00,Weather View 32 v70,2013-08-02 09:47:00,
2013-08-02 05:52:00,68.0,53.2,29.68,East,101,2.0,4.0,59,0.00,,,0.00,Weather View 32 v70,2013-08-02 09:52:00,
2013-08-02 05:57:00,68.0,53.4,29.71,East,96,1.0,4.0,60,0.00,,,0.00,Weather View 32 v70,2013-08-02 09:57:00,
2013-08-02 06:02:00,68.2,53.6,29.68,East,85,1.0,2.0,60,0.00,,,0.00,Weather View 32 v70,2013-08-02 10:02:00,
2013-08-02 06:07:00,68.2,53.6,29.68,ESE,103,1.0,2.0,60,0.00,,,0.00,Weather View 32 v70,2013-08-02 10:07:00,
2013-08-02 06:12:00,68.0,52.9,29.68,NE,47,1.0,2.0,59,0.00,,,0.00,Weather View 32 v70,2013-08-02 10:12:00,
2013-08-02 06:17:00,67.6,52.7,29.68,North,3,1.0,2.0,59,0.00,,,0.00,Weather View 32 v70,2013-08-02 10:17:00,
2013-08-02 06:22:00,66.9,52.2,29.68,WSW,238,0.0,2.0,59,0.00,,,0.00,Weather View 32 v70,2013-08-02 10:22:00,
2013-08-02 06:27:00,67.3,53.0,29.68,East,92,1.0,3.0,60,0.00,,,0.00,Weather View 32 v70,2013-08-02 10:27:00,
2013-08-02 06:32:00,67.3,52.8,29.74,NE,42,2.0,3.0,60,0.00,,,0.00,Weather View 32 v70,2013-08-02 10:32:00,
2013-08-02 06:37:00,66.9,52.6,29.71,North,11,2.0,3.0,60,0.00,,,0.00,Weather View 32 v70,2013-08-02 10:37:00,
2013-08-02 06:42:00,67.1,52.8,29.71,North,7,2.0,3.0,60,0.00,,,0.00,Weather View 32 v70,2013-08-02 10:42:00,
2013-08-02 06:47:00,67.6,53.5,29.74,East,82,1.0,3.0,61,0.00,,,0.00,Weather View 32 v70,2013-08-02 10:47:00,
2013-08-02 06:52:00,68.0,53.5,29.71,North,11,1.0,3.0,60,0.00,,,0.00,Weather View 32 v70,2013-08-02 10:52:00,
2013-08-02 06:57:00,68.2,53.7,29.71,NE,37,1.0,3.0,60,0.00,,,0.00,Weather View 32 v70,2013-08-02 10:57:00,
2013-08-02 07:02:00,68.3,53.6,29.74,SE,125,1.0,3.0,59,0.00,,,0.00,Weather View 32 v70,2013-08-02 11:02:00,
2013-08-02 07:07:00,68.5,53.5,29.71,NNE,25,3.0,3.0,59,0.00,,,0.00,Weather View 32 v70,2013-08-02 11:07:00,
2013-08-02 07:12:00,68.5,53.3,29.74,ESE,108,1.0,3.0,59,0.00,,,0.00,Weather View 32 v70,2013-08-02 11:12:00,
2013-08-02 07:17:00,68.2,52.6,29.71,WNW,289,1.0,3.0,58,0.00,,,0.00,Weather View 32 v70,2013-08-02 11:17:00,
2013-08-02 07:22:00,68.2,52.9,29.71,ENE,73,1.0,3.0,58,0.00,,,0.00,Weather View 32 v70,2013-08-02 11:22:00,
2013-08-02 07:27:00,68.3,52.9,29.71,North,8,2.0,3.0,58,0.00,,,0.00,Weather View 32 v70,2013-08-02 11:27:00,
2013-08-02 07:32:00,68.3,53.4,29.71,NE,35,1.0,5.0,59,0.00,,,0.00,Weather View 32 v70,2013-08-02 11:32:00,
2013-08-02 07:37:00,68.9,53.6,29.71,East,101,2.0,5.0,58,0.00,,,0.00,Weather View 32 v70,2013-08-02 11:37:00,
2013-08-02 07:42:00,69.2,53.8,29.71,ESE,106,1.0,5.0,58,0.00,,,0.00,Weather View 32 v70,2013-08-02 11:42:00,
2013-08-02 07:47:00,68.5,52.9,29.77,SW,217,1.0,5.0,58,0.00,,,0.00,Weather View 32 v70,2013-08-02 11:47:00,
2013-08-02 07:52:00,68.5,53.3,29.74,NE,51,1.0,5.0,58,0.00,,,0.00,Weather View 32 v70,2013-08-02 11:52:00,
2013-08-02 07:57:00,68.3,53.2,29.71,North,349,2.0,5.0,59,0.00,,,0.00,Weather View 32 v70,2013-08-02 11:57:00,
2013-08-02 08:02:00,68.2,53.4,29.71,North,356,2.0,6.0,59,0.00,,,0.00,Weather View 32 v70,2013-08-02 12:02:00,
2013-08-02 08:07:00,70.1,55.3,29.71,North,352,2.0,6.0,60,0.00,,,0.00,Weather View 32 v70,2013-08-02 12:07:00,
2013-08-02 08:12:00,71.8,56.1,29.74,ENE,58,1.0,6.0,58,0.00,,,0.00,Weather View 32 v70,2013-08-02 12:12:00,
2013-08-02 08:17:00,70.7,53.1,29.74,WSW,255,2.0,6.0,54,0.00,,,0.00,Weather View 32 v70,2013-08-02 12:17:00,
2013-08-02 08:22:00,69.8,52.1,29.74,North,355,2.0,6.0,54,0.00,,,0.00,Weather View 32 v70,2013-08-02 12:22:00,
2013-08-02 08:27:00,70.9,53.4,29.71,North,9,1.0,6.0,54,0.00,,,0.00,Weather View 32 v70,2013-08-02 12:27:00,
2013-08-02 08:32:00,71.0,52.7,29.68,NNE,20,3.0,6.0,53,0.00,,,0.00,Weather View 32 v70,2013-08-02 12:32:00,
2013-08-02 08:37:00,71.2,52.4,29.68,North,353,3.0,6.0,52,0.00,,,0.00,Weather View 32 v70,2013-08-02 12:37:00,
2013-08-02 08:42:00,71.6,52.2,29.74,SW,228,2.0,6.0,51,0.00,,,0.00,Weather View 32 v70,2013-08-02 12:42:00,
2013-08-02 08:47:00,72.5,53.4,29.74,North,6,1.0,6.0,51,0.00,,,0.00,Weather View 32 v70,2013-08-02 12:47:00,
2013-08-02 08:52:00,73.2,53.9,29.71,ESE,120,0.0,6.0,51,0.00,,,0.00,Weather View 32 v70,2013-08-02 12:52:00,
2013-08-02 08:57:00,74.1,53.7,29.74,North,7,2.0,6.0,49,0.00,,,0.00,Weather View 32 v70,2013-08-02 12:57:00,
2013-08-02 09:02:00,74.5,52.9,29.71,NW,326,2.0,6.0,47,0.00,,,0.00,Weather View 32 v70,2013-08-02 13:02:00,
2013-08-02 09:07:00,76.3,55.1,29.71,NE,50,2.0,6.0,48,0.00,,,0.00,Weather View 32 v70,2013-08-02 13:07:00,
2013-08-02 09:12:00,78.2,55.3,29.71,ENE,70,3.0,6.0,45,0.00,,,0.00,Weather View 32 v70,2013-08-02 13:12:00,
2013-08-02 09:17:00,79.1,55.0,29.71,NE,42,2.0,6.0,44,0.00,,,0.00,Weather View 32 v70,2013-08-02 13:17:00,
2013-08-02 09:22:00,77.0,52.6,29.71,North,356,2.0,6.0,43,0.00,,,0.00,Weather View 32 v70,2013-08-02 13:22:00,
2013-08-02 09:27:00,77.5,51.2,29.74,NNW,329,4.0,6.0,40,0.00,,,0.00,Weather View 32 v70,2013-08-02 13:27:00,
2013-08-02 09:32:00,74.6,51.1,29.71,SSW,194,0.0,8.0,44,0.00,,,0.00,Weather View 32 v70,2013-08-02 13:32:00,
2013-08-02 09:37:00,76.1,52.6,29.74,North,351,2.0,8.0,44,0.00,,,0.00,Weather View 32 v70,2013-08-02 13:37:00,
2013-08-02 09:43:00,74.8,52.0,29.71,SW,216,0.0,8.0,45,0.00,,,0.00,Weather View 32 v70,2013-08-02 13:43:00,
2013-08-02 09:48:00,75.0,51.7,29.74,North,358,2.0,8.0,44,0.00,,,0.00,Weather View 32 v70,2013-08-02 13:48:00,
2013-08-02 09:53:00,78.2,54.4,29.74,North,3,1.0,8.0,44,0.00,,,0.00,Weather View 32 v70,2013-08-02 13:53:00,
2013-08-02 09:58:00,78.6,53.6,29.71,ESE,113,2.0,8.0,42,0.00,,,0.00,Weather View 32 v70,2013-08-02 13:58:00,
2013-08-02 10:03:00,76.8,50.9,29.74,North,350,5.0,8.0,41,0.00,,,0.00,Weather View 32 v70,2013-08-02 14:03:00,
2013-08-02 10:07:00,77.5,51.6,29.71,NNW,344,3.0,8.0,41,0.00,,,0.00,Weather View 32 v70,2013-08-02 14:07:00,
2013-08-02 10:13:00,79.0,53.4,29.74,NE,46,1.0,8.0,41,0.00,,,0.00,Weather View 32 v70,2013-08-02 14:13:00,
2013-08-02 10:18:00,80.6,53.6,29.71,ENE,70,3.0,8.0,40,0.00,,,0.00,Weather View 32 v70,2013-08-02 14:18:00,
2013-08-02 10:23:00,79.9,50.6,29.77,North,5,3.0,8.0,36,0.00,,,0.00,Weather View 32 v70,2013-08-02 14:23:00,
2013-08-02 10:27:00,81.3,52.4,29.74,NNE,13,2.0,8.0,37,0.00,,,0.00,Weather View 32 v70,2013-08-02 14:27:00,
2013-08-02 10:32:00,82.6,52.3,29.77,NE,53,2.0,8.0,35,0.00,,,0.00,Weather View 32 v70,2013-08-02 14:32:00,
2013-08-02 10:38:00,78.6,48.3,29.77,WNW,288,6.0,8.0,35,0.00,,,0.00,Weather View 32 v70,2013-08-02 14:38:00,
2013-08-02 10:43:00,81.5,51.8,29.77,ENE,58,1.0,8.0,36,0.00,,,0.00,Weather View 32 v70,2013-08-02 14:43:00,
2013-08-02 10:48:00,81.5,47.9,29.77,NNW,343,3.0,8.0,31,0.00,,,0.00,Weather View 32 v70,2013-08-02 14:48:00,
2013-08-02 10:53:00,82.4,50.0,29.77,NNE,17,3.0,8.0,33,0.00,,,0.00,Weather View 32 v70,2013-08-02 14:53:00,
2013-08-02 10:58:00,83.1,50.5,29.71,ENE,73,2.0,8.0,33,0.00,,,0.00,Weather View 32 v70,2013-08-02 14:58:00,
2013-08-02 11:03:00,79.9,47.4,29.74,North,357,3.0,8.0,32,0.00,,,0.00,Weather View 32 v70,2013-08-02 15:03:00,
2013-08-02 11:08:00,80.2,49.5,29.74,NNW,333,1.0,7.0,34,0.00,,,0.00,Weather View 32 v70,2013-08-02 15:08:00,
2013-08-02 11:13:00,81.1,48.4,29.74,WSW,237,1.0,7.0,32,0.00,,,0.00,Weather View 32 v70,2013-08-02 15:13:00,
2013-08-02 11:18:00,80.0,48.1,29.74,NNW,344,1.0,7.0,33,0.00,,,0.00,Weather View 32 v70,2013-08-02 15:18:00,
2013-08-02 11:23:00,82.2,50.1,29.74,ESE,106,0.0,7.0,33,0.00,,,0.00,Weather View 32 v70,2013-08-02 15:23:00,
2013-08-02 11:30:00,80.8,49.5,29.74,NNW,348,1.0,7.0,34,0.00,,,0.00,Weather View 32 v70,2013-08-02 15:30:00,
2013-08-02 11:35:00,82.4,50.0,29.74,North,2,1.0,7.0,33,0.00,,,0.00,Weather View 32 v70,2013-08-02 15:35:00,
2013-08-02 11:40:00,81.5,48.3,29.74,North,9,3.0,7.0,32,0.00,,,0.00,Weather View 32 v70,2013-08-02 15:40:00,
2013-08-02 11:45:00,84.0,49.9,29.74,North,10,2.0,7.0,31,0.00,,,0.00,Weather View 32 v70,2013-08-02 15:45:00,
2013-08-02 11:50:00,83.8,48.0,29.74,NNE,15,3.0,7.0,29,0.00,,,0.00,Weather View 32 v70,2013-08-02 15:50:00,
2013-08-02 11:55:00,86.2,50.8,29.80,East,97,2.0,7.0,30,0.00,,,0.00,Weather View 32 v70,2013-08-02 15:55:00,
2013-08-02 12:00:00,84.5,48.3,29.74,SW,222,1.0,7.0,29,0.00,,,0.00,Weather View 32 v70,2013-08-02 16:00:00,
2013-08-02 12:05:00,82.4,47.3,29.71,North,356,4.0,7.0,30,0.00,,,0.00,Weather View 32 v70,2013-08-02 16:05:00,
2013-08-02 12:10:00,81.8,46.5,29.74,NNW,338,2.0,8.0,29,0.00,,,0.00,Weather View 32 v70,2013-08-02 16:10:00,
2013-08-02 12:14:00,81.5,45.7,29.74,WNW,296,3.0,9.0,29,0.00,,,0.00,Weather View 32 v70,2013-08-02 16:14:00,
2013-08-02 12:20:00,80.8,45.3,29.77,NNW,332,3.0,9.0,29,0.00,,,0.00,Weather View 32 v70,2013-08-02 16:20:00,
2013-08-02 12:25:00,83.8,48.1,29.74,NW,307,2.0,9.0,29,0.00,,,0.00,Weather View 32 v70,2013-08-02 16:25:00,
2013-08-02 12:29:00,83.5,49.6,29.71,NW,324,3.0,9.0,31,0.00,,,0.00,Weather View 32 v70,2013-08-02 16:29:00,
2013-08-02 12:35:00,82.9,47.9,29.74,NNW,332,1.0,9.0,30,0.00,,,0.00,Weather View 32 v70,2013-08-02 16:35:00,
2013-08-02 12:40:00,81.1,46.3,29.74,SW,233,7.0,9.0,30,0.00,,,0.00,Weather View 32 v70,2013-08-02 16:40:00,
2013-08-02 12:44:00,83.1,47.0,29.74,West,268,2.0,9.0,29,0.00,,,0.00,Weather View 32 v70,2013-08-02 16:44:00,
2013-08-02 12:50:00,85.4,47.4,29.74,South,187,1.0,9.0,27,0.00,,,0.00,Weather View 32 v70,2013-08-02 16:50:00,
2013-08-02 12:55:00,86.5,46.0,29.74,NW,320,1.0,9.0,25,0.00,,,0.00,Weather View 32 v70,2013-08-02 16:55:00,
2013-08-02 13:00:00,84.0,43.6,29.74,West,281,3.0,9.0,24,0.00,,,0.00,Weather View 32 v70,2013-08-02 17:00:00,
2013-08-02 13:05:00,83.8,46.7,29.71,SW,228,3.0,9.0,28,0.00,,,0.00,Weather View 32 v70,2013-08-02 17:05:00,
2013-08-02 13:10:00,81.7,43.8,29.74,North,349,4.0,9.0,27,0.00,,,0.00,Weather View 32 v70,2013-08-02 17:10:00,
2013-08-02 13:15:00,83.5,47.0,29.74,SSE,167,2.0,8.0,28,0.00,,,0.00,Weather View 32 v70,2013-08-02 17:15:00,
2013-08-02 13:20:00,85.3,48.5,29.77,NNE,32,3.0,8.0,28,0.00,,,0.00,Weather View 32 v70,2013-08-02 17:20:00,
2013-08-02 13:25:00,83.5,44.5,29.74,WSW,253,5.0,9.0,26,0.00,,,0.00,Weather View 32 v70,2013-08-02 17:25:00,
2013-08-02 13:29:00,82.2,44.2,29.74,West,261,3.0,9.0,26,0.00,,,0.00,Weather View 32 v70,2013-08-02 17:29:00,
2013-08-02 13:35:00,83.3,46.2,29.74,WNW,291,1.0,9.0,28,0.00,,,0.00,Weather View 32 v70,2013-08-02 17:35:00,
2013-08-02 13:40:00,82.7,44.2,29.77,SW,230,3.0,9.0,26,0.00,,,0.00,Weather View 32 v70,2013-08-02 17:40:00,
2013-08-02 13:44:00,85.1,45.7,29.74,NNW,332,2.0,9.0,26,0.00,,,0.00,Weather View 32 v70,2013-08-02 17:44:00,
2013-08-02 13:50:00,83.1,41.7,29.77,WNW,290,2.0,9.0,23,0.00,,,0.00,Weather View 32 v70,2013-08-02 17:50:00,
2013-08-02 13:54:00,82.0,42.6,29.71,WSW,237,2.0,9.0,25,0.00,,,0.00,Weather View 32 v70,2013-08-02 17:54:00,
2013-08-02 13:59:00,82.7,44.8,29.71,WSW,253,4.0,9.0,27,0.00,,,0.00,Weather View 32 v70,2013-08-02 17:59:00,
2013-08-02 14:04:00,83.8,44.4,29.68,SW,233,3.0,9.0,25,0.00,,,0.00,Weather View 32 v70,2013-08-02 18:04:00,
2013-08-02 14:09:00,83.6,44.3,29.74,WSW,237,5.0,9.0,25,0.00,,,0.00,Weather View 32 v70,2013-08-02 18:09:00,
2013-08-02 14:14:00,85.1,43.5,29.68,West,266,2.0,9.0,23,0.00,,,0.00,Weather View 32 v70,2013-08-02 18:14:00,
2013-08-02 14:20:00,84.5,42.3,29.71,SW,233,4.0,9.0,23,0.00,,,0.00,Weather View 32 v70,2013-08-02 18:20:00,
2013-08-02 14:25:00,84.4,42.4,29.68,SW,224,6.0,9.0,23,0.00,,,0.00,Weather View 32 v70,2013-08-02 18:25:00,
2013-08-02 14:30:00,88.0,46.6,29.77,North,354,2.0,9.0,24,0.00,,,0.00,Weather View 32 v70,2013-08-02 18:30:00,
2013-08-02 14:34:00,86.0,42.7,29.68,WSW,257,5.0,9.0,22,0.00,,,0.00,Weather View 32 v70,2013-08-02 18:34:00,
2013-08-02 14:40:00,82.9,41.1,29.74,WSW,242,7.0,9.0,23,0.00,,,0.00,Weather View 32 v70,2013-08-02 18:40:00,
2013-08-02 14:45:00,83.6,42.7,29.74,WSW,247,4.0,9.0,24,0.00,,,0.00,Weather View 32 v70,2013-08-02 18:45:00,
2013-08-02 14:50:00,83.5,42.8,29.71,SW,232,8.0,11.0,24,0.00,,,0.00,Weather View 32 v70,2013-08-02 18:50:00,
2013-08-02 14:55:00,83.6,42.6,29.71,NW,314,3.0,11.0,24,0.00,,,0.00,Weather View 32 v70,2013-08-02 18:55:00,
2013-08-02 15:00:00,84.9,44.6,29.74,SW,232,1.0,11.0,25,0.00,,,0.00,Weather View 32 v70,2013-08-02 19:00:00,
2013-08-02 15:05:00,84.5,44.1,29.74,WNW,296,5.0,11.0,24,0.00,,,0.00,Weather View 32 v70,2013-08-02 19:05:00,
2013-08-02 15:10:00,86.3,44.1,29.71,WNW,287,3.0,11.0,23,0.00,,,0.00,Weather View 32 v70,2013-08-02 19:10:00,
2013-08-02 15:15:00,84.4,44.4,29.71,SSW,212,5.0,15.0,25,0.00,,,0.00,Weather View 32 v70,2013-08-02 19:15:00,
2013-08-02 15:20:00,84.9,44.9,29.74,SW,225,7.0,15.0,25,0.00,,,0.00,Weather View 32 v70,2013-08-02 19:20:00,
2013-08-02 15:25:00,84.5,44.3,29.74,NNE,12,1.0,15.0,25,0.00,,,0.00,Weather View 32 v70,2013-08-02 19:25:00,
2013-08-02 15:30:00,86.2,42.6,29.77,West,276,2.0,15.0,22,0.00,,,0.00,Weather View 32 v70,2013-08-02 19:30:00,
2013-08-02 15:35:00,84.5,42.4,29.77,SSW,199,2.0,15.0,23,0.00,,,0.00,Weather View 32 v70,2013-08-02 19:35:00,
2013-08-02 15:40:00,84.2,41.1,29.80,SW,232,7.0,15.0,22,0.00,,,0.00,Weather View 32 v70,2013-08-02 19:40:00,
2013-08-02 15:45:00,85.4,44.5,29.71,NNW,344,3.0,15.0,24,0.00,,,0.00,Weather View 32 v70,2013-08-02 19:45:00,
2013-08-02 15:50:00,83.3,42.5,29.74,SW,215,3.0,15.0,24,0.00,,,0.00,Weather View 32 v70,2013-08-02 19:50:00,
2013-08-02 15:55:00,82.0,42.3,29.74,WNW,296,2.0,15.0,25,0.00,,,0.00,Weather View 32 v70,2013-08-02 19:55:00,
2013-08-02 16:00:00,82.9,43.7,29.68,ESE,107,1.0,15.0,25,0.00,,,0.00,Weather View 32 v70,2013-08-02 20:00:00,
2013-08-02 16:05:00,81.7,43.9,29.74,North,357,1.0,15.0,27,0.00,,,0.00,Weather View 32 v70,2013-08-02 20:05:00,
2013-08-02 16:10:00,84.4,46.5,29.71,North,10,3.0,15.0,27,0.00,,,0.00,Weather View 32 v70,2013-08-02 20:10:00,
2013-08-02 16:15:00,83.6,44.7,29.74,West,272,3.0,13.0,26,0.00,,,0.00,Weather View 32 v70,2013-08-02 20:15:00,
2013-08-02 16:20:00,84.9,46.9,29.71,SE,143,0.0,10.0,27,0.00,,,0.00,Weather View 32 v70,2013-08-02 20:20:00,
2013-08-02 16:25:00,82.2,45.6,29.71,NNW,347,5.0,9.0,28,0.00,,,0.00,Weather View 32 v70,2013-08-02 20:25:00,
2013-08-02 16:30:00,82.9,45.1,29.74,WNW,302,5.0,9.0,27,0.00,,,0.00,Weather View 32 v70,2013-08-02 20:30:00,
2013-08-02 16:35:00,81.8,43.1,29.74,WSW,253,1.0,9.0,26,0.00,,,0.00,Weather View 32 v70,2013-08-02 20:35:00,
2013-08-02 16:40:00,83.1,47.6,29.71,WNW,288,1.0,9.0,29,0.00,,,0.00,Weather View 32 v70,2013-08-02 20:40:00,
2013-08-02 16:45:00,82.2,49.5,29.71,WSW,246,4.0,7.0,32,0.00,,,0.00,Weather View 32 v70,2013-08-02 20:45:00,
2013-08-02 16:50:00,80.9,49.0,29.74,SW,235,8.0,10.0,33,0.00,,,0.00,Weather View 32 v70,2013-08-02 20:50:00,
2013-08-02 16:55:00,80.6,51.0,29.74,SW,228,4.0,10.0,36,0.00,,,0.00,Weather View 32 v70,2013-08-02 20:55:00,
2013-08-02 17:00:00,80.8,51.1,29.74,SW,236,7.0,10.0,36,0.00,,,0.00,Weather View 32 v70,2013-08-02 21:00:00,
2013-08-02 17:05:00,80.6,50.9,29.71,WSW,256,3.0,10.0,36,0.00,,,0.00,Weather View 32 v70,2013-08-02 21:05:00,
2013-08-02 17:10:00,81.7,51.1,29.71,South,184,2.0,10.0,35,0.00,,,0.00,Weather View 32 v70,2013-08-02 21:10:00,
2013-08-02 17:15:00,81.3,50.1,29.71,SW,233,5.0,10.0,34,0.00,,,0.00,Weather View 32 v70,2013-08-02 21:15:00,
2013-08-02 17:20:00,79.7,49.3,29.71,SW,224,7.0,10.0,35,0.00,,,0.00,Weather View 32 v70,2013-08-02 21:20:00,
2013-08-02 17:25:00,79.9,48.7,29.74,SW,221,9.0,10.0,34,0.00,,,0.00,Weather View 32 v70,2013-08-02 21:25:00,
2013-08-02 17:30:00,80.6,49.9,29.74,WSW,246,5.0,10.0,35,0.00,,,0.00,Weather View 32 v70,2013-08-02 21:30:00,
2013-08-02 17:35:00,79.9,49.7,29.74,South,189,5.0,10.0,35,0.00,,,0.00,Weather View 32 v70,2013-08-02 21:35:00,
2013-08-02 17:40:00,80.2,48.9,29.71,SSW,198,5.0,10.0,34,0.00,,,0.00,Weather View 32 v70,2013-08-02 21:40:00,
2013-08-02 17:45:00,81.1,49.6,29.74,SW,231,2.0,10.0,34,0.00,,,0.00,Weather View 32 v70,2013-08-02 21:45:00,
2013-08-02 17:50:00,79.7,48.3,29.71,SSW,195,6.0,10.0,34,0.00,,,0.00,Weather View 32 v70,2013-08-02 21:50:00,
2013-08-02 17:55:00,79.9,48.9,29.74,SW,219,2.0,10.0,34,0.00,,,0.00,Weather View 32 v70,2013-08-02 21:55:00,
2013-08-02 18:00:00,80.0,49.8,29.74,SSE,160,2.0,10.0,35,0.00,,,0.00,Weather View 32 v70,2013-08-02 22:00:00,
2013-08-02 18:05:00,79.1,48.2,29.71,SW,222,8.0,11.0,34,0.00,,,0.00,Weather View 32 v70,2013-08-02 22:05:00,
2013-08-02 18:10:00,80.0,49.4,29.74,SW,216,6.0,11.0,34,0.00,,,0.00,Weather View 32 v70,2013-08-02 22:10:00,
2013-08-02 18:15:00,79.3,49.4,29.71,SW,221,7.0,11.0,35,0.00,,,0.00,Weather View 32 v70,2013-08-02 22:15:00,
2013-08-02 18:20:00,78.6,49.4,29.71,SSW,205,6.0,11.0,36,0.00,,,0.00,Weather View 32 v70,2013-08-02 22:20:00,
2013-08-02 18:25:00,79.1,49.2,29.77,SW,236,7.0,11.0,35,0.00,,,0.00,Weather View 32 v70,2013-08-02 22:25:00,
2013-08-02 18:30:00,79.1,49.3,29.74,SSW,204,4.0,11.0,35,0.00,,,0.00,Weather View 32 v70,2013-08-02 22:30:00,
2013-08-02 18:35:00,78.4,48.6,29.77,SSW,206,4.0,11.0,35,0.00,,,0.00,Weather View 32 v70,2013-08-02 22:35:00,
2013-08-02 18:40:00,78.8,49.6,29.77,SSW,212,3.0,11.0,36,0.00,,,0.00,Weather View 32 v70,2013-08-02 22:40:00,
2013-08-02 18:45:00,77.3,49.0,29.74,SW,235,7.0,11.0,37,0.00,,,0.00,Weather View 32 v70,2013-08-02 22:45:00,
2013-08-02 18:50:00,77.3,49.3,29.77,SW,226,4.0,11.0,38,0.00,,,0.00,Weather View 32 v70,2013-08-02 22:50:00,
2013-08-02 18:55:00,77.0,48.9,29.74,WSW,237,5.0,11.0,37,0.00,,,0.00,Weather View 32 v70,2013-08-02 22:55:00,
2013-08-02 19:00:00,76.4,48.3,29.77,SW,227,6.0,11.0,37,0.00,,,0.00,Weather View 32 v70,2013-08-02 23:00:00,
2013-08-02 19:05:00,77.5,49.2,29.74,WSW,239,3.0,11.0,37,0.00,,,0.00,Weather View 32 v70,2013-08-02 23:05:00,
2013-08-02 19:10:00,77.5,49.0,29.74,ESE,110,0.0,9.0,37,0.00,,,0.00,Weather View 32 v70,2013-08-02 23:10:00,
2013-08-02 19:15:00,77.2,48.0,29.77,SSW,196,3.0,9.0,36,0.00,,,0.00,Weather View 32 v70,2013-08-02 23:15:00,
2013-08-02 19:20:00,78.2,48.4,29.74,ENE,73,1.0,9.0,35,0.00,,,0.00,Weather View 32 v70,2013-08-02 23:20:00,
2013-08-02 19:25:00,78.1,47.5,29.77,NW,323,1.0,9.0,34,0.00,,,0.00,Weather View 32 v70,2013-08-02 23:25:00,
2013-08-02 19:30:00,77.2,47.1,29.74,SSW,208,2.0,9.0,35,0.00,,,0.00,Weather View 32 v70,2013-08-02 23:30:00,
2013-08-02 19:35:00,76.8,48.0,29.74,SSE,159,1.0,9.0,36,0.00,,,0.00,Weather View 32 v70,2013-08-02 23:35:00,
2013-08-02 19:40:00,77.9,48.5,29.71,North,1,1.0,9.0,36,0.00,,,0.00,Weather View 32 v70,2013-08-02 23:40:00,
2013-08-02 19:45:00,77.0,47.8,29.74,North,2,1.0,8.0,36,0.00,,,0.00,Weather View 32 v70,2013-08-02 23:45:00,
2013-08-02 19:50:00,76.8,47.6,29.77,SE,131,1.0,8.0,36,0.00,,,0.00,Weather View 32 v70,2013-08-02 23:50:00,
2013-08-02 19:55:00,76.8,47.0,29.77,SW,224,1.0,8.0,35,0.00,,,0.00,Weather View 32 v70,2013-08-02 23:55:00,
2013-08-02 20:00:00,75.4,47.6,29.77,SSW,197,3.0,8.0,38,0.00,,,0.00,Weather View 32 v70,2013-08-03 00:00:00,
2013-08-02 20:05:00,73.9,49.3,29.77,SSW,200,5.0,7.0,42,0.00,,,0.00,Weather View 32 v70,2013-08-03 00:05:00,
2013-08-02 20:10:00,74.6,49.4,29.74,SW,214,3.0,7.0,41,0.00,,,0.00,Weather View 32 v70,2013-08-03 00:10:00,
2013-08-02 20:15:00,74.3,49.4,29.74,SW,222,4.0,7.0,42,0.00,,,0.00,Weather View 32 v70,2013-08-03 00:15:00,
2013-08-02 20:20:00,73.9,49.2,29.77,SW,228,4.0,7.0,42,0.00,,,0.00,Weather View 32 v70,2013-08-03 00:20:00,
2013-08-02 20:25:00,73.6,49.2,29.77,SW,231,2.0,7.0,42,0.00,,,0.00,Weather View 32 v70,2013-08-03 00:25:00,
2013-08-02 20:30:00,73.6,49.9,29.77,NNW,344,0.0,7.0,43,0.00,,,0.00,Weather View 32 v70,2013-08-03 00:30:00,
2013-08-02 20:35:00,73.6,50.1,29.77,SW,224,0.0,7.0,44,0.00,,,0.00,Weather View 32 v70,2013-08-03 00:35:00,
2013-08-02 20:40:00,73.0,49.4,29.77,SSW,207,2.0,7.0,43,0.00,,,0.00,Weather View 32 v70,2013-08-03 00:40:00,
2013-08-02 20:45:00,73.4,49.8,29.80,ESE,106,1.0,7.0,44,0.00,,,0.00,Weather View 32 v70,2013-08-03 00:45:00,
2013-08-02 20:50:00,73.2,49.9,29.80,SSE,163,1.0,7.0,44,0.00,,,0.00,Weather View 32 v70,2013-08-03 00:50:00,
2013-08-02 20:55:00,73.0,49.9,29.77,WSW,253,1.0,7.0,44,0.00,,,0.00,Weather View 32 v70,2013-08-03 00:55:00,
2013-08-02 21:00:00,72.5,49.9,29.80,WSW,238,2.0,7.0,45,0.00,,,0.00,Weather View 32 v70,2013-08-03 01:00:00,
2013-08-02 21:05:00,72.1,50.0,29.80,SSW,203,3.0,7.0,46,0.00,,,0.00,Weather View 32 v70,2013-08-03 01:05:00,
2013-08-02 21:10:00,72.3,50.5,29.77,WSW,253,1.0,6.0,46,0.00,,,0.00,Weather View 32 v70,2013-08-03 01:10:00,
2013-08-02 21:15:00,72.3,50.5,29.80,South,172,1.0,6.0,46,0.00,,,0.00,Weather View 32 v70,2013-08-03 01:15:00,
2013-08-02 21:20:00,71.8,50.7,29.77,SW,225,4.0,6.0,48,0.00,,,0.00,Weather View 32 v70,2013-08-03 01:20:00,
2013-08-02 21:25:00,72.1,51.9,29.80,ESE,117,1.0,6.0,49,0.00,,,0.00,Weather View 32 v70,2013-08-03 01:25:00,
2013-08-02 21:30:00,71.6,51.1,29.77,South,173,1.0,6.0,49,0.00,,,0.00,Weather View 32 v70,2013-08-03 01:30:00,
2013-08-02 21:35:00,71.2,50.6,29.77,SSW,203,3.0,6.0,48,0.00,,,0.00,Weather View 32 v70,2013-08-03 01:35:00,
2013-08-02 21:40:00,71.4,51.2,29.80,SSW,197,1.0,6.0,49,0.00,,,0.00,Weather View 32 v70,2013-08-03 01:40:00,
2013-08-02 21:45:00,71.9,51.3,29.80,East,79,0.0,6.0,48,0.00,,,0.00,Weather View 32 v70,2013-08-03 01:45:00,
2013-08-02 21:50:00,71.8,51.3,29.77,ENE,74,1.0,6.0,49,0.00,,,0.00,Weather View 32 v70,2013-08-03 01:50:00,
2013-08-02 21:55:00,71.8,51.4,29.77,ENE,74,1.0,6.0,49,0.00,,,0.00,Weather View 32 v70,2013-08-03 01:55:00,
2013-08-02 22:00:00,71.2,50.6,29.77,South,172,1.0,6.0,48,0.00,,,0.00,Weather View 32 v70,2013-08-03 02:00:00,
2013-08-02 22:05:00,70.7,51.5,29.80,SW,225,5.0,6.0,51,0.00,,,0.00,Weather View 32 v70,2013-08-03 02:05:00,
2013-08-02 22:10:00,70.7,52.1,29.80,SW,220,1.0,6.0,52,0.00,,,0.00,Weather View 32 v70,2013-08-03 02:10:00,
2013-08-02 22:20:00,70.5,51.6,29.80,SSW,208,2.0,6.0,51,0.00,,,0.00,Weather View 32 v70,2013-08-03 02:20:00,
2013-08-02 22:24:00,70.7,52.3,29.77,SSE,163,0.0,6.0,52,0.00,,,0.00,Weather View 32 v70,2013-08-03 02:24:00,
2013-08-02 22:30:00,70.5,52.1,29.80,South,186,2.0,6.0,52,0.00,,,0.00,Weather View 32 v70,2013-08-03 02:30:00,
2013-08-02 22:35:00,70.1,52.6,29.77,SW,228,4.0,6.0,54,0.00,,,0.00,Weather View 32 v70,2013-08-03 02:35:00,
2013-08-02 22:40:00,70.1,52.7,29.80,SW,214,3.0,6.0,54,0.00,,,0.00,Weather View 32 v70,2013-08-03 02:40:00,
2013-08-02 22:45:00,70.1,53.1,29.80,SW,214,2.0,6.0,55,0.00,,,0.00,Weather View 32 v70,2013-08-03 02:45:00,
2013-08-02 22:50:00,70.1,52.9,29.80,South,189,2.0,6.0,55,0.00,,,0.00,Weather View 32 v70,2013-08-03 02:50:00,
2013-08-02 22:54:00,70.0,52.8,29.80,SW,226,4.0,6.0,55,0.00,,,0.00,Weather View 32 v70,2013-08-03 02:54:00,
2013-08-02 23:00:00,70.0,52.8,29.77,SSW,204,1.0,6.0,55,0.00,,,0.00,Weather View 32 v70,2013-08-03 03:00:00,
2013-08-02 23:05:00,69.8,53.5,29.77,SW,217,3.0,6.0,56,0.00,,,0.00,Weather View 32 v70,2013-08-03 03:05:00,
2013-08-02 23:10:00,69.4,53.2,29.80,SW,218,3.0,6.0,56,0.00,,,0.00,Weather View 32 v70,2013-08-03 03:10:00,
2013-08-02 23:14:00,70.0,53.6,29.77,SSE,148,1.0,6.0,56,0.00,,,0.00,Weather View 32 v70,2013-08-03 03:14:00,
2013-08-02 23:20:00,70.5,53.2,29.77,ENE,72,0.0,6.0,54,0.00,,,0.00,Weather View 32 v70,2013-08-03 03:20:00,
2013-08-02 23:25:00,70.9,52.9,29.80,NNE,27,1.0,6.0,53,0.00,,,0.00,Weather View 32 v70,2013-08-03 03:25:00,
2013-08-02 23:30:00,70.1,52.2,29.77,South,191,2.0,6.0,53,0.00,,,0.00,Weather View 32 v70,2013-08-03 03:30:00,
2013-08-02 23:34:00,70.0,51.9,29.77,South,176,1.0,6.0,53,0.00,,,0.00,Weather View 32 v70,2013-08-03 03:34:00,
2013-08-02 23:39:00,69.6,52.5,29.77,SSE,150,2.0,6.0,55,0.00,,,0.00,Weather View 32 v70,2013-08-03 03:39:00,
2013-08-02 23:45:00,70.3,52.7,29.77,East,96,2.0,6.0,54,0.00,,,0.00,Weather View 32 v70,2013-08-03 03:45:00,
2013-08-02 23:49:00,70.5,52.5,29.80,SE,132,2.0,6.0,53,0.00,,,0.00,Weather View 32 v70,2013-08-03 03:49:00,
2013-08-02 23:55:00,70.3,52.7,29.80,SE,127,2.0,6.0,54,0.00,,,0.00,Weather View 32 v70,2013-08-03 03:55:00,